Regionale Übersicht

METAR und TAF

Donnerstag, 01. Dezember 2022 - 00:35 Uhr

Beobachtete horizontale meteorologische Sicht an ausgewählten Flughäfen. Die vollständigen METARs und Flugwettervorhersagen (TAFs) sind verfügbar, wenn Sie auf das entsprechende Symbol mit der ICAO-Flughafenkennung klicken.

  • Luxemburg (ELLX)

    Taf: TAF ELLX 302300Z 0100/0206 03010KT 9999 BKN030 TEMPO 0100/0110 BKN012=

    Metar: METAR ELLX 302320Z 03011KT 9999 SCT012 BKN035 05/03 Q1023 NOSIG=

  • Spangdahlem (ETAD)

    Taf: TAF AMD ETAD 302250Z 3022/0203 03008KT 9999 BKN009 QNH3020INS TEMPO 3023/0101 BKN005 TEMPO 0103/0107 03010G15KT 3200 BR BKN010 BECMG 0108/0109 04010G15KT 9999 BKN010 QNH3019INS TEMPO 0115/0118 8000 -RA BECMG 0117/0118 03010G15KT 9999 BKN020 QNH3015INS TX05/0115Z TN03/0104Z=

    Metar: METAR ETAD 302255Z AUTO 05004KT 9999 OVC009 05/02 A3020 RMK AO2 SLP228 T00470015 400700032 $=

  • Metz/Nancy (LFJL)

    Taf: TAF LFJL 302300Z NIL=

    Metar: METAR LFJL 302300Z AUTO 01006KT 6000 BKN015 BKN028 OVC041 06/05 Q1023 TEMPO 2500 -DZ BR BKN003=

  • Saarbrücken/Intl (EDDR)

    Taf: TAF EDDR 302300Z 0100/0124 04007KT 8000 BKN006 BKN015 TEMPO 0100/0104 4000 -DZ BKN004 TEMPO 0104/0108 SCT006 BKN015 BECMG 0108/0110 SCT012 BKN025 TEMPO 0114/0124 BKN010=

    Metar: METAR EDDR 302320Z AUTO 05008KT 010V080 9999 BKN005 OVC009 OVC033 05/05 Q1022=

  • Hahn (EDFH)

    Taf: TAF EDFH 302300Z 0100/0124 03008KT 4000 BR BKN002 TEMPO 0100/0110 1000 DZ OVC001 BECMG 0110/0112 8000 BKN005 BECMG 0120/0122 4000 BR BKN003 TEMPO 0120/0124 1000 DZ OVC001=

    Metar: METAR EDFH 302320Z 36008KT 2000 BR BKN002 04/04 Q1023=

  • Ramstein (ETAR)

    Taf: TAF AMD ETAR 302238Z 3022/0124 05006KT 6000 BR OVC003 620404 QNH3019INS TEMPO 3022/0105 BKN008 BECMG 0104/0105 05012KT 9999 NSW BKN020 620402 QNH3021INS TEMPO 0105/0109 BKN015 BECMG 0115/0116 VRB06KT 9999 BKN015 620306 QNH3018INS TEMPO 0120/0124 BKN008 TX05/3022Z TN04/0104Z=

    Metar: METAR ETAR 302255Z 06006KT 6000 BR OVC002 05/05 A3019 RMK AO2A RAB2157E11DZB11E18RAB18E24 SLP234 P0001 T00530047 400710032 $=

  • Nancy/Ochey (LFSO)

    Taf: TAF LFSO 302000Z NIL=

    Metar: METAR LFSO 302300Z AUTO 01007KT 4300 BR OVC005 05/05 Q1022=

  • Liège Bierset (EBLG)

    Taf: TAF EBLG 302320Z 0100/0206 03004KT 3200 BR BKN005 PROB40 TEMPO 0102/0213 0300 FG BKN002 TEMPO 0114/0123 7000 NSW SCT012=

    Metar: METAR EBLG 302320Z 01006KT 3900 BR BKN003 05/04 Q1025 TEMPO 2000 BR BKN002=

  • Saint-Dizier (LFSI)

    Taf: TAF LFSI 302000Z 3021/0121 03006KT 9999 BKN020 BKN040 BECMG 0103/0105 BKN010 TEMPO 0105/0111 BKN005 BECMG 0111/0113 BKN015=

    Metar: METAR LFSI 302300Z AUTO 34003KT 9999 FEW019 OVC044 06/04 Q1023=

  • Maastricht/Zuid Limburg (EHBK)

    Taf: TAF EHBK 302305Z 0100/0206 03007KT 7000 BKN014 TEMPO 0100/0110 4000 BR BKN008 PROB40 0100/0110 1500 -DZ BKN003 PROB40 0118/0123 BKN006 BECMG 0123/0202 BKN006=

    Metar: METAR EHBK 302325Z AUTO 04008KT 6000 BKN005 BKN007 OVC009 06/05 Q1025=

  • Köln/Köln-Bonn (EDDK)

    Taf: TAF EDDK 302300Z 0100/0206 34005KT 9999 FEW015 BKN040 TEMPO 0100/0112 BKN008 PROB30 TEMPO 0101/0111 4000 BR BECMG 0109/0112 04005KT=

    Metar: METAR EDDK 302320Z AUTO 32003KT 9999 FEW015 OVC039 05/05 Q1025 NOSIG=

  • Charleroi (EBCI)

    Taf: TAF EBCI 302320Z 0100/0206 03004KT 6000 BKN015 BECMG 0100/0102 1100 BR BKN005 PROB30 TEMPO 0102/0113 0300 FG BKN002 TEMPO 0114/0120 7000 NSW SCT011=

    Metar: METAR EBCI 302320Z 01005KT 4000 BR FEW007 SCT015 03/02 Q1026 NOSIG=

  • Wiesbaden (ETOU)

    Taf: TAF ETOU 302100Z 3021/0203 04006KT 3200 -RA BR OVC014 QNH3022INS BECMG 0109/0110 03009KT 9999 SCT020 OVC030 QNH3026INS BECMG 0117/0118 02006KT 3200 -RA BR SCT010 BKN020 QNH3024INS TX08/0113Z TN06/0105Z LAST NO AMDS AFT 3021=

    Metar: METAR ETOU 302255Z AUTO 00000KT 9999 OVC013 07/07 A3023 RMK AO2 CIG 012 RWY25 SLP243 T00690068 400870066 $=

  • Karlsruhe/Baden-Baden (EDSB)

    Taf: TAF EDSB 302300Z 0100/0124 03011KT 9999 OVC025 PROB40 TEMPO 0120/0124 2500 -DZ BKN003=

    Metar: METAR EDSB 302320Z 05010KT 9999 BKN020 OVC025 05/02 Q1022=

  • Chalons/Vatry (LFOK)

    Taf: TAF LFOK 302300Z NIL=

    Metar: METAR LFOK 302300Z AUTO 02010KT 9000 OVC028 05/04 Q1024 TEMPO BKN012=

  • Frankfurt/Main (EDDF)

    Taf: TAF EDDF 302300Z 0100/0206 06004KT 9999 FEW007 BKN011 TEMPO 0100/0109 BKN007 BECMG 0107/0109 03009KT SCT006 BKN025 PROB40 TEMPO 0200/0204 4000 DZ BKN012 TEMPO 0204/0206 4000 DZ BKN006 PROB30 TEMPO 0204/0206 2500 -SN=

    Metar: METAR EDDF 302320Z AUTO 14004KT 9999 -DZ BKN013 06/05 Q1024 NOSIG=

  • Brüssel (EBBR)

    Taf: TAF EBBR 302320Z 0100/0206 03004KT 6000 BKN018 BECMG 0100/0102 2500 BR BKN006 PROB40 TEMPO 0102/0112 1400 -DZ BKN003 BECMG 0111/0113 7000 NSW SCT012 PROB40 TEMPO 0202/0206 2500 BR=

    Metar: METAR EBBR 302320Z 03004KT 9000 FEW007 BKN010 04/03 Q1026 TEMPO 4000 BR BKN006=

  • Düsseldorf (EDDL)

    Taf: TAF EDDL 302300Z 0100/0206 02006KT 9000 BKN006 TEMPO 0102/0110 3500 BR BKN004 BECMG 0109/0112 BKN012 BECMG 0112/0115 BKN025 TEMPO 0121/0206 BKN012=

    Metar: METAR EDDL 302320Z AUTO 01007KT 9999 OVC006 06/05 Q1026 NOSIG=

  • Luxeuil (LFSX)

    Taf: TAF LFSX 302000Z NIL=

    Metar: METAR LFSX 302300Z AUTO 02004KT 9999 OVC040 07/03 Q1020=

  • Eindhoven (EHEH)

    Taf: TAF EHEH 301720Z 3018/0124 35003KT 9999 OVC025 BECMG 3018/3020 02005KT 4500 BR SCT010 OVC015 PROB40 TEMPO 3020/0106 2000 -DZ BR SCT006 BKN008 BECMG 0106/0109 6000 NSW SCT015 BKN020 TEMPO 0114/0124 SCT008 BKN012=

    Metar: METAR EHEH 302325Z AUTO 36006KT 8000 BR SCT010 OVC013 06/04 Q1027 GRN=

  • Niederrhein (EDLV)

    Taf: TAF AMD EDLV 302320Z 3023/0118 CNL=

    Metar: METAR EDLV 302320Z AUTO VRB03KT 5000 // OVC005/// 06/05 Q1026=

  • Dortmund/Wickede (EDLW)

    Taf: TAF EDLW 302300Z NIL=

    Metar: METAR EDLW 302320Z AUTO 02003KT 340V060 1300 0900 R24/1600U // OVC001/// 05/05 Q1025=

  • Stuttgart/Echterdingen (EDDS)

    Taf: TAF EDDS 302300Z 0100/0124 03006KT 9999 BKN012 TEMPO 0102/0107 SCT012 BKN030 TEMPO 0119/0124 4000 DZ BKN008=

    Metar: METAR EDDS 302320Z AUTO 03005KT 9999 SCT014 OVC026 03/01 Q1021=

  • Basel-Mühlhausen (LFSB)

    Taf: TAF LFSB 302300Z NIL=

    Metar: METAR LFSB 302300Z AUTO 00000KT 9999 OVC039 05/03 Q1021 TEMPO 0700 FG VV///=

  • Lille (LFQQ)

    Taf: TAF LFQQ 302300Z NIL=

    Metar: METAR LFQQ 302300Z AUTO 05007KT 3200 BR OVC002 05/05 Q1027 TEMPO 0700 FG VV///=

  • Paris/Charles de Gaulle (LFPG)

    Taf: TAF LFPG 302300Z NIL=

    Metar: METAR LFPG 302300Z 01006KT 350V120 4500 BR FEW046 05/04 Q1025 TEMPO BKN008=

  • Paderborn/Lippstadt (EDLP)

    Taf: TAF EDLP 302300Z 0100/0124 VRB03KT 5000 BR BKN004 TEMPO 0100/0108 1200 BCFG BKN001 BECMG 0105/0108 07005KT TEMPO 0108/0110 3500 BR BECMG 0110/0113 BKN012 TEMPO 0118/0124 BKN006=

    Metar: METAR EDLP 302320Z 02003KT 340V050 6000 OVC002 05/05 Q1025=

  • Paris/Le Bourget (LFPB)

    Taf: TAF LFPB 302300Z NIL=

    Metar: METAR LFPB 302300Z AUTO 35005KT 5000 BR NSC 06/05 Q1025 TEMPO BKN008=

  • Rotterdam (EHRD)

    Taf: TAF EHRD 302312Z 0100/0206 03006KT 2500 BR MIFG SCT030 PROB40 TEMPO 0100/0109 0800 BCFG BECMG 0108/0111 9999 NSW BECMG 0120/0123 06006KT 6000 BKN012 PROB30 TEMPO 0123/0206 4000 BR BKN008=

    Metar: METAR EHRD 302325Z AUTO 33003KT 2600 BR NCD 02/02 Q1027 TEMPO 1200 BCFG=

  • Zürich/Kloten (LSZH)

    Taf: TAF LSZH 302025Z 3021/0203 06004KT 9999 FEW015 BKN025 TX04/0113Z TN02/0105Z TEMPO 0105/0111 BKN013 BECMG 0109/0111 04006KT BECMG 0117/0120 VRB02KT=

    Metar: METAR LSZH 302320Z AUTO 01005KT 340V040 9999 FEW018 SCT030 03/M01 Q1021 NOSIG=

  • Oostende/Intl (EBOS)

    Taf: TAF EBOS 302320Z 0100/0206 VRB03KT 0100 FG BKN001 BECMG 0108/0110 6000 NSW SCT012 PROB40 TEMPO 0201/0206 2200 BR=

    Metar: METAR EBOS 302320Z 10002KT 0150 R08/0400N R26/0200N FG BKN001 02/01 Q1027 TEMPO 0500 FG=

  • Paris/Orly (LFPO)

    Taf: TAF LFPO 302300Z 0100/0206 02008KT 9999 BKN035 TEMPO 0100/0124 BKN012 PROB30 TEMPO 0100/0109 BKN008 PROB30 TEMPO 0114/0119 -RA BKN009 BECMG 0200/0202 BKN012 TEMPO 0202/0206 BKN006=

    Metar: METAR LFPO 302300Z 02007KT 9999 FEW011 SCT045 06/04 Q1025 TEMPO BKN012=

  • Beauvais (LFOB)

    Taf: TAF LFOB 302300Z NIL=

    Metar: METAR LFOB 302300Z AUTO 36006KT 5000 BR BKN047 04/04 Q1026 BECMG OVC006=

  • Münster/Intl (EDDG)

    Taf: TAF EDDG 302300Z 0100/0124 03005KT 6000 BKN005 TEMPO 0100/0107 1200 BCFG BKN003 BECMG 0106/0109 BKN012 TEMPO 0107/0110 4000 BR TEMPO 0112/0124 BKN020=

    Metar: METAR EDDG 302320Z AUTO 01005KT 6000 OVC004 05/04 Q1026 TEMPO 4000 BR=

  • Illesheim (ETIK)

    Taf: TAF ETIK 302200Z 3022/0204 VRB06KT 9999 OVC015 QNH3021INS BECMG 0105/0106 VRB06KT 4000 BR OVC010 QNH3020INS BECMG 0112/0113 VRB06KT 8000 BR SCT010 BKN030 QNH3020INS BECMG 0114/0115 VRB06KT 9999 NSW SCT015 OVC040 QNH3018INS BECMG 0119/0120 VRB06KT 6000 BR OVC015 QNH3017INS TX05/0114Z TN01/0104Z LAST NO AMDS AFT 3022 NEXT 0106=

    Metar: METAR ETIK 302255Z AUTO 00000KT 9999 OVC019 01/M02 A3022 RMK AO2 SLP250 T00141018 400480014 FZRANO $=

  • Duebendorf (LSMD)

    Taf: TAF LSMD 301625Z 3017/0123 06006KT 9999 FEW013 BKN018 TEMPO 3017/0110 BKN013 BECMG 3023/0102 VRB02KT BECMG 0109/0111 04006KT=

    Metar: METAR LSMD 302320Z AUTO 00000KT 9999NDV SCT016 SCT023 OVC029 03/00 Q1021 RMK=

  • Villacoublay (LFPV)

    Taf: TAF LFPV 302000Z 3021/0121 03008KT 7000 BKN008 TX06/0115Z TN03/0106Z PROB40 TEMPO 3021/0106 4000 BR BKN004 BECMG 0108/0110 BKN012 BECMG 0110/0112 BKN015=

    Metar: METAR LFPV 302300Z AUTO 02006KT 6000 SCT010 BKN014 OVC044 06/04 Q1025 TEMPO 4000 BR BKN004=

  • Payerne (LSMP)

    Taf: TAF LSMP 301625Z 3017/0123 05007KT 9999 FEW030 OVC050=

    Metar: METAR LSMP 302320Z AUTO 07008KT 050V110 9999NDV FEW017 BKN024 OVC028 04/01 Q1020 RMK=

  • Amsterdam/Schipol (EHAM)

    Taf: TAF EHAM 302312Z 0100/0206 03006KT 4000 BR MIFG SCT030 PROB40 TEMPO 0100/0109 1000 BCFG BECMG 0108/0111 9999 NSW BECMG 0120/0123 06006KT 6000 BKN012 PROB30 TEMPO 0123/0206 4000 BR BKN008=

    Metar: METAR EHAM 302325Z 01003KT 5000 BR MIFG FEW008 04/04 Q1028 BECMG 4000=

  • Emmen (LSME)

    Taf: TAF LSME 301625Z 3017/0123 04005KT 9999 FEW015 BKN030 TEMPO 3018/0113 BKN013=

    Metar: METAR LSME 302320Z AUTO 00000KT 9999NDV OVC020 04/04 Q1020 RMK=

  • Friedrichshafen (EDNY)

    Taf: TAF EDNY 302300Z 0100/0124 03005KT 9999 OVC025 TEMPO 0104/0108 BKN012=

    Metar: METAR EDNY 302320Z AUTO 01006KT 9999 // OVC030/// 03/M00 Q1020=

  • Alpnach (LSMA)

    Taf: TAF LSMA 301625Z 3017/0123 05010KT 9999 SCT015 BKN025 PROB40 TEMPO 3017/3024 DZ TEMPO 3018/0123 BKN013 TEMPO 3022/0109 VRB02KT BECMG 0117/0120 VRB02KT=

    Metar: METAR LSMA 302320Z AUTO 04005KT 350V100 9999NDV -RA SCT014 BKN022 OVC027 04/01 Q1020 RMK=

  • Meiringen (LSMM)

    Taf: TAF LSMM 301625Z 3017/0123 06010KT 9999 FEW025 BKN030 PROB30 TEMPO 3017/0111 BKN014=

    Metar: METAR LSMM 302320Z AUTO 05014KT 020V080 9999NDV FEW020 SCT026 OVC046 03/01 Q1019 RMK=

  • Nürnberg (EDDN)

    Taf: TAF EDDN 302300Z 0100/0124 04004KT 9999 OVC020 BECMG 0119/0121 BKN012=

    Metar: METAR EDDN 302320Z AUTO VRB02KT 9999 OVC023 02/M01 Q1023=

  • Rouen (LFOP)

    Taf: TAF LFOP 302300Z NIL=

    Metar: METAR LFOP 302300Z AUTO 03006KT 5000 BR OVC047 03/02 Q1026=

  • Evreux (LFOE)

    Taf: TAF LFOE 302000Z 3021/0121 06007KT 7000 OVC009 TEMPO 0103/0107 4000 BR OVC004 BECMG 0110/0112 BKN015=

    Metar: METAR LFOE 302300Z AUTO VRB03KT 6000 OVC046 04/03 Q1026 BECMG OVC009=

  • Erfurt/Bindersleben (EDDE)

    Taf: TAF EDDE 302300Z 0100/0124 05003KT 6000 BKN012 TEMPO 0100/0124 1200 BCFG BKN002 PROB40 TEMPO 0100/0113 0300 FG VV001 PROB40 TEMPO 0118/0124 0300 -SN FG VV001=

    Metar: METAR EDDE 302320Z AUTO 05003KT 5000 BR FEW004 BKN014 OVC020 03/02 Q1024=